sensor_id;sensor_type;location;lat;lon;timestamp;pressure;altitude;pressure_sealevel;temperature;humidity
16834;BME280;8533;48.426;10.868;2023-01-23T00:01:06;97202.12;;;-2.51;100.00
16834;BME280;8533;48.426;10.868;2023-01-23T00:03:34;97199.48;;;-2.55;100.00
16834;BME280;8533;48.426;10.868;2023-01-23T00:06:05;97208.86;;;-2.60;100.00
16834;BME280;8533;48.426;10.868;2023-01-23T00:08:34;97208.06;;;-2.70;100.00
16834;BME280;8533;48.426;10.868;2023-01-23T00:11:04;97201.36;;;-2.67;100.00
16834;BME280;8533;48.426;10.868;2023-01-23T00:13:32;97204.81;;;-2.62;100.00
16834;BME280;8533;48.426;10.868;2023-01-23T00:16:03;97210.06;;;-2.64;100.00
16834;BME280;8533;48.426;10.868;2023-01-23T00:18:30;97214.50;;;-2.66;100.00
16834;BME280;8533;48.426;10.868;2023-01-23T00:21:01;97223.28;;;-2.68;100.00
16834;BME280;8533;48.426;10.868;2023-01-23T00:23:27;97221.84;;;-2.67;100.00
16834;BME280;8533;48.426;10.868;2023-01-23T00:25:54;97221.92;;;-2.73;100.00
16834;BME280;8533;48.426;10.868;2023-01-23T00:28:22;97229.89;;;-2.76;100.00
16834;BME280;8533;48.426;10.868;2023-01-23T00:30:49;97237.44;;;-2.84;100.00
16834;BME280;8533;48.426;10.868;2023-01-23T00:33:16;97239.23;;;-2.90;100.00
16834;BME280;8533;48.426;10.868;2023-01-23T00:35:44;97240.98;;;-2.90;100.00
16834;BME280;8533;48.426;10.868;2023-01-23T00:38:11;97243.39;;;-2.98;100.00
16834;BME280;8533;48.426;10.868;2023-01-23T00:40:39;97240.19;;;-3.00;100.00
16834;BME280;8533;48.426;10.868;2023-01-23T00:43:06;97234.11;;;-3.09;100.00
16834;BME280;8533;48.426;10.868;2023-01-23T00:45:33;97240.85;;;-3.08;100.00
16834;BME280;8533;48.426;10.868;2023-01-23T00:48:02;97246.56;;;-3.10;100.00
16834;BME280;8533;48.426;10.868;2023-01-23T00:50:30;97241.32;;;-3.09;100.00
16834;BME280;8533;48.426;10.868;2023-01-23T00:52:57;97242.31;;;-3.05;100.00
16834;BME280;8533;48.426;10.868;2023-01-23T00:55:25;97244.83;;;-3.00;100.00
16834;BME280;8533;48.426;10.868;2023-01-23T00:57:52;97241.05;;;-2.96;100.00
16834;BME280;8533;48.426;10.868;2023-01-23T01:00:20;97250.01;;;-2.96;100.00
16834;BME280;8533;48.426;10.868;2023-01-23T01:02:47;97241.14;;;-2.92;100.00
16834;BME280;8533;48.426;10.868;2023-01-23T01:05:15;97253.44;;;-2.91;100.00
16834;BME280;8533;48.426;10.868;2023-01-23T01:07:44;97246.52;;;-2.85;100.00
16834;BME280;8533;48.426;10.868;2023-01-23T01:10:12;97248.67;;;-2.81;100.00
16834;BME280;8533;48.426;10.868;2023-01-23T01:12:40;97255.75;;;-2.79;100.00
16834;BME280;8533;48.426;10.868;2023-01-23T01:15:08;97250.89;;;-2.72;100.00
16834;BME280;8533;48.426;10.868;2023-01-23T01:17:36;97254.48;;;-2.69;100.00
16834;BME280;8533;48.426;10.868;2023-01-23T01:20:05;97253.59;;;-2.64;100.00
16834;BME280;8533;48.426;10.868;2023-01-23T01:22:33;97255.42;;;-2.60;100.00
16834;BME280;8533;48.426;10.868;2023-01-23T01:25:00;97260.88;;;-2.59;100.00
16834;BME280;8533;48.426;10.868;2023-01-23T01:27:28;97254.53;;;-2.55;100.00
16834;BME280;8533;48.426;10.868;2023-01-23T01:29:55;97252.91;;;-2.56;100.00
16834;BME280;8533;48.426;10.868;2023-01-23T01:32:23;97251.03;;;-2.54;100.00
16834;BME280;8533;48.426;10.868;2023-01-23T01:34:51;97256.16;;;-2.54;100.00
16834;BME280;8533;48.426;10.868;2023-01-23T01:37:19;97253.64;;;-2.50;100.00
16834;BME280;8533;48.426;10.868;2023-01-23T01:39:48;97248.26;;;-2.47;100.00
16834;BME280;8533;48.426;10.868;2023-01-23T01:42:15;97254.88;;;-2.45;100.00
16834;BME280;8533;48.426;10.868;2023-01-23T01:44:54;97258.97;;;-2.38;100.00
16834;BME280;8533;48.426;10.868;2023-01-23T01:47:21;97251.08;;;-2.41;100.00
16834;BME280;8533;48.426;10.868;2023-01-23T01:49:49;97253.46;;;-2.43;100.00
16834;BME280;8533;48.426;10.868;2023-01-23T01:52:19;97255.34;;;-2.45;100.00
16834;BME280;8533;48.426;10.868;2023-01-23T01:54:57;97251.08;;;-2.50;100.00
16834;BME280;8533;48.426;10.868;2023-01-23T01:57:28;97253.94;;;-2.53;100.00
16834;BME280;8533;48.426;10.868;2023-01-23T02:00:06;97257.22;;;-2.57;100.00
16834;BME280;8533;48.426;10.868;2023-01-23T02:02:50;97264.52;;;-2.52;100.00
16834;BME280;8533;48.426;10.868;2023-01-23T02:05:21;97257.95;;;-2.51;100.00
16834;BME280;8533;48.426;10.868;2023-01-23T02:07:59;97254.53;;;-2.55;100.00
16834;BME280;8533;48.426;10.868;2023-01-23T02:10:24;97257.35;;;-2.58;100.00
16834;BME280;8533;48.426;10.868;2023-01-23T02:12:52;97256.28;;;-2.56;100.00
16834;BME280;8533;48.426;10.868;2023-01-23T02:15:21;97259.60;;;-2.59;100.00
16834;BME280;8533;48.426;10.868;2023-01-23T02:17:50;97259.60;;;-2.59;100.00
16834;BME280;8533;48.426;10.868;2023-01-23T02:20:27;97257.64;;;-2.61;100.00
16834;BME280;8533;48.426;10.868;2023-01-23T02:22:58;97250.34;;;-2.56;100.00
16834;BME280;8533;48.426;10.868;2023-01-23T02:25:39;97244.08;;;-2.58;100.00
16834;BME280;8533;48.426;10.868;2023-01-23T02:28:04;97236.22;;;-2.60;100.00
16834;BME280;8533;48.426;10.868;2023-01-23T02:30:32;97231.83;;;-2.64;100.00
16834;BME280;8533;48.426;10.868;2023-01-23T02:33:08;97238.31;;;-2.70;100.00
16834;BME280;8533;48.426;10.868;2023-01-23T02:35:35;97238.22;;;-2.74;100.00
16834;BME280;8533;48.426;10.868;2023-01-23T02:38:04;97227.59;;;-2.69;100.00
16834;BME280;8533;48.426;10.868;2023-01-23T02:40:36;97229.21;;;-2.78;100.00
16834;BME280;8533;48.426;10.868;2023-01-23T02:43:05;97228.41;;;-2.78;100.00
16834;BME280;8533;48.426;10.868;2023-01-23T02:45:33;97243.02;;;-2.84;100.00
16834;BME280;8533;48.426;10.868;2023-01-23T02:48:01;97238.63;;;-2.88;100.00
16834;BME280;8533;48.426;10.868;2023-01-23T02:50:30;97234.33;;;-2.87;100.00
16834;BME280;8533;48.426;10.868;2023-01-23T02:52:58;97232.45;;;-2.85;100.00
16834;BME280;8533;48.426;10.868;2023-01-23T02:55:26;97229.67;;;-2.88;100.00
16834;BME280;8533;48.426;10.868;2023-01-23T02:57:55;97230.75;;;-2.81;100.00
16834;BME280;8533;48.426;10.868;2023-01-23T03:00:28;97232.84;;;-2.80;100.00
16834;BME280;8533;48.426;10.868;2023-01-23T03:02:55;97232.24;;;-2.78;100.00
16834;BME280;8533;48.426;10.868;2023-01-23T03:05:22;97234.93;;;-2.80;100.00
16834;BME280;8533;48.426;10.868;2023-01-23T03:07:50;97226.36;;;-2.75;100.00
16834;BME280;8533;48.426;10.868;2023-01-23T03:10:17;97222.73;;;-2.72;100.00
16834;BME280;8533;48.426;10.868;2023-01-23T03:12:45;97222.48;;;-2.69;100.00
16834;BME280;8533;48.426;10.868;2023-01-23T03:15:12;97221.20;;;-2.69;100.00
16834;BME280;8533;48.426;10.868;2023-01-23T03:17:39;97221.06;;;-2.67;100.00
16834;BME280;8533;48.426;10.868;2023-01-23T03:20:07;97228.41;;;-2.68;100.00
16834;BME280;8533;48.426;10.868;2023-01-23T03:22:35;97229.95;;;-2.62;100.00
16834;BME280;8533;48.426;10.868;2023-01-23T03:25:03;97236.01;;;-2.63;100.00
16834;BME280;8533;48.426;10.868;2023-01-23T03:27:30;97236.01;;;-2.63;100.00
16834;BME280;8533;48.426;10.868;2023-01-23T03:29:58;97244.11;;;-2.67;100.00
16834;BME280;8533;48.426;10.868;2023-01-23T03:32:45;97250.51;;;-2.67;100.00
16834;BME280;8533;48.426;10.868;2023-01-23T03:35:14;97250.22;;;-2.64;100.00
16834;BME280;8533;48.426;10.868;2023-01-23T03:37:42;97260.33;;;-2.63;100.00
16834;BME280;8533;48.426;10.868;2023-01-23T03:40:16;97256.48;;;-2.63;100.00
16834;BME280;8533;48.426;10.868;2023-01-23T03:43:02;97266.73;;;-2.63;100.00
16834;BME280;8533;48.426;10.868;2023-01-23T03:45:29;97268.56;;;-2.59;100.00
16834;BME280;8533;48.426;10.868;2023-01-23T03:47:57;97268.82;;;-2.62;100.00
16834;BME280;8533;48.426;10.868;2023-01-23T03:50:25;97267.80;;;-2.65;100.00
16834;BME280;8533;48.426;10.868;2023-01-23T03:52:53;97258.58;;;-2.62;100.00
16834;BME280;8533;48.426;10.868;2023-01-23T03:55:20;97251.58;;;-2.70;100.00
16834;BME280;8533;48.426;10.868;2023-01-23T03:57:48;97253.11;;;-2.73;100.00
16834;BME280;8533;48.426;10.868;2023-01-23T04:00:15;97249.09;;;-2.76;100.00
16834;BME280;8533;48.426;10.868;2023-01-23T04:02:43;97248.33;;;-2.82;100.00
16834;BME280;8533;48.426;10.868;2023-01-23T04:05:10;97248.67;;;-2.81;100.00
16834;BME280;8533;48.426;10.868;2023-01-23T04:07:38;97249.14;;;-2.81;100.00
16834;BME280;8533;48.426;10.868;2023-01-23T04:10:05;97251.56;;;-2.80;100.00
16834;BME280;8533;48.426;10.868;2023-01-23T04:12:33;97250.84;;;-2.76;100.00
16834;BME280;8533;48.426;10.868;2023-01-23T04:15:00;97249.34;;;-2.79;100.00
16834;BME280;8533;48.426;10.868;2023-01-23T04:17:28;97249.01;;;-2.80;100.00
16834;BME280;8533;48.426;10.868;2023-01-23T04:19:55;97242.39;;;-2.82;100.00
16834;BME280;8533;48.426;10.868;2023-01-23T04:22:22;97249.08;;;-2.85;100.00
16834;BME280;8533;48.426;10.868;2023-01-23T04:24:50;97246.52;;;-2.85;100.00
16834;BME280;8533;48.426;10.868;2023-01-23T04:27:17;97243.63;;;-2.86;100.00
16834;BME280;8533;48.426;10.868;2023-01-23T04:29:45;97237.14;;;-2.90;100.00
16834;BME280;8533;48.426;10.868;2023-01-23T04:32:15;97242.33;;;-2.96;100.00
16834;BME280;8533;48.426;10.868;2023-01-23T04:34:42;97245.44;;;-2.92;100.00
16834;BME280;8533;48.426;10.868;2023-01-23T04:37:10;97247.33;;;-2.85;100.00
16834;BME280;8533;48.426;10.868;2023-01-23T04:39:37;97250.08;;;-2.82;100.00
16834;BME280;8533;48.426;10.868;2023-01-23T04:42:05;97253.41;;;-2.76;100.00
16834;BME280;8533;48.426;10.868;2023-01-23T04:44:32;97252.17;;;-2.72;100.00
16834;BME280;8533;48.426;10.868;2023-01-23T04:47:00;97257.17;;;-2.71;100.00
16834;BME280;8533;48.426;10.868;2023-01-23T04:49:27;97260.06;;;-2.70;100.00
16834;BME280;8533;48.426;10.868;2023-01-23T04:51:55;97270.65;;;-2.68;100.00
16834;BME280;8533;48.426;10.868;2023-01-23T04:54:22;97271.12;;;-2.69;100.00
16834;BME280;8533;48.426;10.868;2023-01-23T04:56:50;97280.59;;;-2.65;100.00
16834;BME280;8533;48.426;10.868;2023-01-23T04:59:17;97281.07;;;-2.66;100.00
16834;BME280;8533;48.426;10.868;2023-01-23T05:01:45;97282.01;;;-2.67;100.00
16834;BME280;8533;48.426;10.868;2023-01-23T05:04:13;97281.70;;;-2.68;100.00
16834;BME280;8533;48.426;10.868;2023-01-23T05:06:40;97287.34;;;-2.64;100.00
16834;BME280;8533;48.426;10.868;2023-01-23T05:09:08;97292.47;;;-2.64;100.00
16834;BME280;8533;48.426;10.868;2023-01-23T05:11:35;97290.24;;;-2.63;100.00
16834;BME280;8533;48.426;10.868;2023-01-23T05:14:03;97295.70;;;-2.62;100.00
16834;BME280;8533;48.426;10.868;2023-01-23T05:16:30;97284.66;;;-2.63;100.00
16834;BME280;8533;48.426;10.868;2023-01-23T05:18:58;97289.52;;;-2.60;100.00
16834;BME280;8533;48.426;10.868;2023-01-23T05:21:25;97285.05;;;-2.58;100.00
16834;BME280;8533;48.426;10.868;2023-01-23T05:23:52;97285.73;;;-2.56;100.00
16834;BME280;8533;48.426;10.868;2023-01-23T05:26:20;97283.04;;;-2.54;100.00
16834;BME280;8533;48.426;10.868;2023-01-23T05:28:47;97285.00;;;-2.52;100.00
16834;BME280;8533;48.426;10.868;2023-01-23T05:31:15;97291.11;;;-2.49;100.00
16834;BME280;8533;48.426;10.868;2023-01-23T05:33:42;97296.23;;;-2.49;100.00
16834;BME280;8533;48.426;10.868;2023-01-23T05:36:09;97297.60;;;-2.45;100.00
16834;BME280;8533;48.426;10.868;2023-01-23T05:38:37;97293.80;;;-2.41;100.00
16834;BME280;8533;48.426;10.868;2023-01-23T05:41:05;97297.99;;;-2.40;100.00
16834;BME280;8533;48.426;10.868;2023-01-23T05:43:32;97291.33;;;-2.37;100.00
16834;BME280;8533;48.426;10.868;2023-01-23T05:46:00;97294.15;;;-2.31;100.00
16834;BME280;8533;48.426;10.868;2023-01-23T05:48:28;97287.87;;;-2.32;100.00
16834;BME280;8533;48.426;10.868;2023-01-23T05:50:56;97288.55;;;-2.30;100.00
16834;BME280;8533;48.426;10.868;2023-01-23T05:53:23;97293.26;;;-2.25;100.00
16834;BME280;8533;48.426;10.868;2023-01-23T05:55:51;97292.78;;;-2.25;100.00
16834;BME280;8533;48.426;10.868;2023-01-23T05:58:18;97297.10;;;-2.25;100.00
16834;BME280;8533;48.426;10.868;2023-01-23T06:00:45;97295.34;;;-2.25;100.00
16834;BME280;8533;48.426;10.868;2023-01-23T06:03:13;97294.14;;;-2.21;100.00
16834;BME280;8533;48.426;10.868;2023-01-23T06:05:40;97295.77;;;-2.20;100.00
16834;BME280;8533;48.426;10.868;2023-01-23T06:08:08;97303.45;;;-2.20;100.00
16834;BME280;8533;48.426;10.868;2023-01-23T06:10:38;97302.91;;;-2.23;100.00
16834;BME280;8533;48.426;10.868;2023-01-23T06:13:05;97315.92;;;-2.21;100.00
16834;BME280;8533;48.426;10.868;2023-01-23T06:15:33;97314.64;;;-2.21;100.00
16834;BME280;8533;48.426;10.868;2023-01-23T06:18:00;97315.33;;;-2.19;100.00
16834;BME280;8533;48.426;10.868;2023-01-23T06:20:28;97326.22;;;-2.17;100.00
16834;BME280;8533;48.426;10.868;2023-01-23T06:22:56;97330.61;;;-2.13;100.00
16834;BME280;8533;48.426;10.868;2023-01-23T06:25:23;97324.68;;;-2.14;100.00
16834;BME280;8533;48.426;10.868;2023-01-23T06:27:51;97333.52;;;-2.12;100.00
16834;BME280;8533;48.426;10.868;2023-01-23T06:30:18;97333.09;;;-2.08;100.00
16834;BME280;8533;48.426;10.868;2023-01-23T06:32:46;97330.83;;;-2.11;100.00
16834;BME280;8533;48.426;10.868;2023-01-23T06:35:13;97330.48;;;-2.12;100.00
16834;BME280;8533;48.426;10.868;2023-01-23T06:37:40;97331.47;;;-2.09;100.00
16834;BME280;8533;48.426;10.868;2023-01-23T06:40:08;97321.09;;;-2.07;100.00
16834;BME280;8533;48.426;10.868;2023-01-23T06:42:40;97327.84;;;-2.06;100.00
16834;BME280;8533;48.426;10.868;2023-01-23T06:45:09;97332.23;;;-2.03;100.00
16834;BME280;8533;48.426;10.868;2023-01-23T06:47:37;97339.97;;;-1.99;100.00
16834;BME280;8533;48.426;10.868;2023-01-23T06:50:05;97340.78;;;-1.98;100.00
16834;BME280;8533;48.426;10.868;2023-01-23T06:52:32;97344.28;;;-1.99;100.00
16834;BME280;8533;48.426;10.868;2023-01-23T06:54:59;97339.37;;;-1.97;100.00
16834;BME280;8533;48.426;10.868;2023-01-23T06:57:27;97328.77;;;-1.98;100.00
16834;BME280;8533;48.426;10.868;2023-01-23T06:59:54;97334.50;;;-2.00;100.00
16834;BME280;8533;48.426;10.868;2023-01-23T07:02:22;97337.74;;;-1.98;100.00
16834;BME280;8533;48.426;10.868;2023-01-23T07:04:49;97339.28;;;-1.91;100.00
16834;BME280;8533;48.426;10.868;2023-01-23T07:07:17;97331.93;;;-1.90;100.00
16834;BME280;8533;48.426;10.868;2023-01-23T07:09:45;97333.21;;;-1.90;100.00
16834;BME280;8533;48.426;10.868;2023-01-23T07:12:12;97340.70;;;-1.93;100.00
16834;BME280;8533;48.426;10.868;2023-01-23T07:14:40;97338.12;;;-1.93;100.00
16834;BME280;8533;48.426;10.868;2023-01-23T07:17:07;97335.91;;;-1.92;100.00
16834;BME280;8533;48.426;10.868;2023-01-23T07:19:34;97337.48;;;-1.95;100.00
16834;BME280;8533;48.426;10.868;2023-01-23T07:22:02;97337.10;;;-1.86;100.00
16834;BME280;8533;48.426;10.868;2023-01-23T07:24:29;97343.38;;;-1.84;100.00
16834;BME280;8533;48.426;10.868;2023-01-23T07:26:57;97338.33;;;-1.80;100.00
16834;BME280;8533;48.426;10.868;2023-01-23T07:29:25;97326.67;;;-1.88;100.00
16834;BME280;8533;48.426;10.868;2023-01-23T07:31:52;97334.16;;;-1.91;100.00
16834;BME280;8533;48.426;10.868;2023-01-23T07:34:20;97337.87;;;-1.89;100.00
16834;BME280;8533;48.426;10.868;2023-01-23T07:36:47;97333.26;;;-1.86;100.00
16834;BME280;8533;48.426;10.868;2023-01-23T07:39:14;97336.97;;;-1.84;100.00
16834;BME280;8533;48.426;10.868;2023-01-23T07:41:42;97342.52;;;-1.79;100.00
16834;BME280;8533;48.426;10.868;2023-01-23T07:44:13;97333.33;;;-1.82;100.00
16834;BME280;8533;48.426;10.868;2023-01-23T07:46:42;97336.50;;;-1.84;100.00
16834;BME280;8533;48.426;10.868;2023-01-23T07:49:09;97334.66;;;-1.78;100.00
16834;BME280;8533;48.426;10.868;2023-01-23T07:51:37;97338.38;;;-1.76;100.00
16834;BME280;8533;48.426;10.868;2023-01-23T07:54:04;97345.59;;;-1.76;100.00
16834;BME280;8533;48.426;10.868;2023-01-23T07:56:32;97349.98;;;-1.72;100.00
16834;BME280;8533;48.426;10.868;2023-01-23T07:59:00;97349.64;;;-1.73;100.00
16834;BME280;8533;48.426;10.868;2023-01-23T08:01:27;97350.45;;;-1.73;100.00
16834;BME280;8533;48.426;10.868;2023-01-23T08:03:55;97353.14;;;-1.65;100.00
16834;BME280;8533;48.426;10.868;2023-01-23T08:06:22;97354.34;;;-1.69;100.00
16834;BME280;8533;48.426;10.868;2023-01-23T08:11:22;97362.38;;;-1.68;100.00
16834;BME280;8533;48.426;10.868;2023-01-23T08:13:51;97355.80;;;-1.70;100.00
16834;BME280;8533;48.426;10.868;2023-01-23T08:16:19;97360.42;;;-1.70;100.00
16834;BME280;8533;48.426;10.868;2023-01-23T08:18:46;97354.55;;;-1.66;100.00
16834;BME280;8533;48.426;10.868;2023-01-23T08:21:14;97349.50;;;-1.62;100.00
16834;BME280;8533;48.426;10.868;2023-01-23T08:23:41;97334.28;;;-1.60;100.00
16834;BME280;8533;48.426;10.868;2023-01-23T08:26:11;97347.98;;;-1.55;100.00
16834;BME280;8533;48.426;10.868;2023-01-23T08:28:41;97353.12;;;-1.55;100.00
16834;BME280;8533;48.426;10.868;2023-01-23T08:31:09;97344.14;;;-1.55;100.00
16834;BME280;8533;48.426;10.868;2023-01-23T08:33:38;97344.78;;;-1.53;100.00
16834;BME280;8533;48.426;10.868;2023-01-23T08:36:06;97349.17;;;-1.49;100.00
16834;BME280;8533;48.426;10.868;2023-01-23T08:38:35;97353.41;;;-1.44;100.00
16834;BME280;8533;48.426;10.868;2023-01-23T08:41:02;97356.78;;;-1.44;100.00
16834;BME280;8533;48.426;10.868;2023-01-23T08:43:30;97357.72;;;-1.45;100.00
16834;BME280;8533;48.426;10.868;2023-01-23T08:45:58;97360.16;;;-1.43;100.00
16834;BME280;8533;48.426;10.868;2023-01-23T08:48:27;97359.01;;;-1.45;100.00
16834;BME280;8533;48.426;10.868;2023-01-23T08:50:59;97359.48;;;-1.45;100.00
16834;BME280;8533;48.426;10.868;2023-01-23T08:53:28;97367.34;;;-1.47;100.00
16834;BME280;8533;48.426;10.868;2023-01-23T08:56:01;97366.87;;;-1.46;100.00
16834;BME280;8533;48.426;10.868;2023-01-23T08:58:29;97368.96;;;-1.46;100.00
16834;BME280;8533;48.426;10.868;2023-01-23T09:00:57;97361.19;;;-1.50;100.00
16834;BME280;8533;48.426;10.868;2023-01-23T09:03:25;97355.45;;;-1.48;100.00
16834;BME280;8533;48.426;10.868;2023-01-23T09:05:52;97356.14;;;-1.46;100.00
16834;BME280;8533;48.426;10.868;2023-01-23T09:08:20;97353.74;;;-1.43;100.00
16834;BME280;8533;48.426;10.868;2023-01-23T09:10:47;97348.44;;;-1.46;100.00
16834;BME280;8533;48.426;10.868;2023-01-23T09:13:15;97360.25;;;-1.49;100.00
16834;BME280;8533;48.426;10.868;2023-01-23T09:15:44;97364.81;;;-1.43;100.00
16834;BME280;8533;48.426;10.868;2023-01-23T09:18:12;97373.86;;;-1.39;100.00
16834;BME280;8533;48.426;10.868;2023-01-23T09:20:39;97381.56;;;-1.39;100.00
16834;BME280;8533;48.426;10.868;2023-01-23T09:23:07;97374.81;;;-1.40;100.00
16834;BME280;8533;48.426;10.868;2023-01-23T09:25:34;97379.17;;;-1.36;100.00
16834;BME280;8533;48.426;10.868;2023-01-23T09:28:03;97375.15;;;-1.39;100.00
16834;BME280;8533;48.426;10.868;2023-01-23T09:30:31;97366.55;;;-1.34;100.00
16834;BME280;8533;48.426;10.868;2023-01-23T09:32:58;97380.73;;;-1.30;100.00
16834;BME280;8533;48.426;10.868;2023-01-23T09:35:25;97375.77;;;-1.27;100.00
16834;BME280;8533;48.426;10.868;2023-01-23T09:37:53;97384.82;;;-1.23;100.00
16834;BME280;8533;48.426;10.868;2023-01-23T09:40:30;97392.78;;;-1.26;100.00
16834;BME280;8533;48.426;10.868;2023-01-23T09:43:15;97390.12;;;-1.21;100.00
16834;BME280;8533;48.426;10.868;2023-01-23T09:45:46;97391.27;;;-1.19;100.00
16834;BME280;8533;48.426;10.868;2023-01-23T09:48:27;97388.37;;;-1.20;100.00
16834;BME280;8533;48.426;10.868;2023-01-23T09:50:59;97378.51;;;-1.15;100.00
16834;BME280;8533;48.426;10.868;2023-01-23T09:53:30;97387.53;;;-1.11;100.00
16834;BME280;8533;48.426;10.868;2023-01-23T09:55:59;97385.44;;;-1.11;100.00
16834;BME280;8533;48.426;10.868;2023-01-23T09:58:42;97383.51;;;-1.13;100.00
16834;BME280;8533;48.426;10.868;2023-01-23T10:01:11;97373.41;;;-1.11;100.00
16834;BME280;8533;48.426;10.868;2023-01-23T10:03:39;97368.61;;;-1.10;100.00
16834;BME280;8533;48.426;10.868;2023-01-23T10:08:43;97363.69;;;-1.07;100.00
16834;BME280;8533;48.426;10.868;2023-01-23T10:11:21;97367.80;;;-1.10;100.00
16834;BME280;8533;48.426;10.868;2023-01-23T10:13:56;97362.81;;;-1.12;100.00
16834;BME280;8533;48.426;10.868;2023-01-23T10:16:45;97350.03;;;-0.94;100.00
16834;BME280;8533;48.426;10.868;2023-01-23T10:19:31;97345.48;;;-1.00;100.00
16834;BME280;8533;48.426;10.868;2023-01-23T10:21:59;97337.77;;;-1.00;100.00
16834;BME280;8533;48.426;10.868;2023-01-23T10:24:31;97343.61;;;-0.94;100.00
16834;BME280;8533;48.426;10.868;2023-01-23T10:26:59;97344.86;;;-0.98;100.00
16834;BME280;8533;48.426;10.868;2023-01-23T10:29:29;97335.48;;;-1.03;100.00
16834;BME280;8533;48.426;10.868;2023-01-23T10:31:58;97334.93;;;-0.97;100.00
16834;BME280;8533;48.426;10.868;2023-01-23T10:34:47;97331.11;;;-0.93;100.00
16834;BME280;8533;48.426;10.868;2023-01-23T10:37:47;97329.72;;;-0.88;100.00
16834;BME280;8533;48.426;10.868;2023-01-23T10:40:17;97329.92;;;-0.85;100.00
16834;BME280;8533;48.426;10.868;2023-01-23T10:42:49;97323.22;;;-0.82;100.00
16834;BME280;8533;48.426;10.868;2023-01-23T10:45:17;97310.80;;;-0.87;100.00
16834;BME280;8533;48.426;10.868;2023-01-23T10:47:48;97308.09;;;-0.85;100.00
16834;BME280;8533;48.426;10.868;2023-01-23T10:50:18;97305.41;;;-0.80;100.00
16834;BME280;8533;48.426;10.868;2023-01-23T10:52:45;97307.98;;;-0.66;100.00
16834;BME280;8533;48.426;10.868;2023-01-23T10:57:48;97306.30;;;-0.71;100.00
16834;BME280;8533;48.426;10.868;2023-01-23T11:00:36;97304.27;;;-0.67;100.00
16834;BME280;8533;48.426;10.868;2023-01-23T11:06:04;97308.14;;;-0.63;100.00
16834;BME280;8533;48.426;10.868;2023-01-23T11:08:28;97314.09;;;-0.63;100.00
16834;BME280;8533;48.426;10.868;2023-01-23T11:13:44;97302.44;;;-0.57;100.00
16834;BME280;8533;48.426;10.868;2023-01-23T11:16:14;97300.98;;;-0.56;100.00
16834;BME280;8533;48.426;10.868;2023-01-23T11:18:46;97302.60;;;-0.55;100.00
16834;BME280;8533;48.426;10.868;2023-01-23T11:21:23;97299.67;;;-0.60;100.00
16834;BME280;8533;48.426;10.868;2023-01-23T11:24:05;97292.11;;;-0.61;100.00
16834;BME280;8533;48.426;10.868;2023-01-23T11:26:30;97287.84;;;-0.57;100.00
16834;BME280;8533;48.426;10.868;2023-01-23T11:28:57;97282.19;;;-0.56;100.00
16834;BME280;8533;48.426;10.868;2023-01-23T11:31:25;97277.91;;;-0.52;100.00
16834;BME280;8533;48.426;10.868;2023-01-23T11:34:01;97268.85;;;-0.42;100.00
16834;BME280;8533;48.426;10.868;2023-01-23T11:36:37;97266.14;;;-0.41;100.00
16834;BME280;8533;48.426;10.868;2023-01-23T11:42:06;97251.69;;;-0.37;100.00
16834;BME280;8533;48.426;10.868;2023-01-23T11:44:33;97249.18;;;-0.29;100.00
16834;BME280;8533;48.426;10.868;2023-01-23T11:47:34;97245.53;;;-0.23;100.00
16834;BME280;8533;48.426;10.868;2023-01-23T11:53:06;97240.19;;;-0.29;100.00
16834;BME280;8533;48.426;10.868;2023-01-23T11:55:44;97232.33;;;-0.28;100.00
16834;BME280;8533;48.426;10.868;2023-01-23T12:06:34;97227.02;;;-0.05;100.00
16834;BME280;8533;48.426;10.868;2023-01-23T12:09:19;97230.40;;;-0.04;100.00
16834;BME280;8533;48.426;10.868;2023-01-23T12:12:22;97226.54;;;-0.04;100.00
16834;BME280;8533;48.426;10.868;2023-01-23T12:20:18;97225.30;;;0.04;100.00
16834;BME280;8533;48.426;10.868;2023-01-23T12:25:37;97214.39;;;0.06;100.00
16834;BME280;8533;48.426;10.868;2023-01-23T12:28:13;97214.11;;;0.13;100.00
16834;BME280;8533;48.426;10.868;2023-01-23T12:30:53;97210.91;;;0.15;100.00
16834;BME280;8533;48.426;10.868;2023-01-23T12:33:18;97210.11;;;0.19;100.00
16834;BME280;8533;48.426;10.868;2023-01-23T12:38:45;97218.11;;;0.08;100.00
16834;BME280;8533;48.426;10.868;2023-01-23T12:41:30;97225.02;;;0.07;100.00
16834;BME280;8533;48.426;10.868;2023-01-23T12:44:04;97224.35;;;0.09;100.00
16834;BME280;8533;48.426;10.868;2023-01-23T12:46:33;97222.27;;;0.09;100.00
16834;BME280;8533;48.426;10.868;2023-01-23T12:49:13;97218.41;;;0.09;100.00
16834;BME280;8533;48.426;10.868;2023-01-23T12:51:36;97208.62;;;0.08;100.00
16834;BME280;8533;48.426;10.868;2023-01-23T12:54:11;97204.77;;;0.08;100.00
16834;BME280;8533;48.426;10.868;2023-01-23T12:56:36;97199.45;;;0.10;100.00
16834;BME280;8533;48.426;10.868;2023-01-23T12:59:21;97196.43;;;0.14;100.00
16834;BME280;8533;48.426;10.868;2023-01-23T13:09:38;97197.91;;;0.25;100.00
16834;BME280;8533;48.426;10.868;2023-01-23T13:12:11;97202.13;;;0.30;100.00
16834;BME280;8533;48.426;10.868;2023-01-23T13:14:39;97200.66;;;0.27;100.00
16834;BME280;8533;48.426;10.868;2023-01-23T13:23:25;97201.72;;;0.47;100.00
16834;BME280;8533;48.426;10.868;2023-01-23T13:26:20;97201.56;;;0.48;100.00
16834;BME280;8533;48.426;10.868;2023-01-23T13:31:33;97196.30;;;0.62;100.00
16834;BME280;8533;48.426;10.868;2023-01-23T13:33:58;97187.31;;;0.70;100.00
16834;BME280;8533;48.426;10.868;2023-01-23T13:36:33;97181.86;;;0.73;100.00
16834;BME280;8533;48.426;10.868;2023-01-23T13:41:41;97172.20;;;0.79;100.00
16834;BME280;8533;48.426;10.868;2023-01-23T13:44:22;97174.80;;;0.87;100.00
16834;BME280;8533;48.426;10.868;2023-01-23T13:52:25;97169.50;;;1.01;100.00
16834;BME280;8533;48.426;10.868;2023-01-23T13:55:28;97175.77;;;1.06;100.00
16834;BME280;8533;48.426;10.868;2023-01-23T13:58:22;97179.33;;;1.09;100.00
16834;BME280;8533;48.426;10.868;2023-01-23T14:00:49;97178.36;;;1.10;100.00
16834;BME280;8533;48.426;10.868;2023-01-23T14:03:26;97175.48;;;1.13;100.00
16834;BME280;8533;48.426;10.868;2023-01-23T14:06:10;97172.41;;;1.18;100.00
16834;BME280;8533;48.426;10.868;2023-01-23T14:08:53;97170.01;;;1.21;100.00